createdAt,value
2017-08-24T00:01:24.844Z,50.03
2017-08-24T00:03:55.291Z,40.40
2017-08-24T00:06:26.093Z,42.50
2017-08-24T00:08:56.787Z,44.40
2017-08-24T00:11:28.001Z,48.47
2017-08-24T00:13:58.775Z,46.20
2017-08-24T00:16:31.477Z,39.73
2017-08-24T00:19:02.440Z,47.73
2017-08-24T00:21:33.602Z,45.93
2017-08-24T00:24:04.484Z,52.43
2017-08-24T00:26:35.537Z,44.30
2017-08-24T00:29:06.516Z,50.43
2017-08-24T00:31:37.773Z,56.00
2017-08-24T00:34:08.763Z,47.27
2017-08-24T00:36:39.887Z,44.53
2017-08-24T00:39:11.028Z,52.90
2017-08-24T00:41:42.270Z,43.40
2017-08-24T00:44:13.465Z,50.73
2017-08-24T00:46:44.737Z,42.57
2017-08-24T00:49:16.002Z,46.43
2017-08-24T00:51:47.212Z,46.90
2017-08-24T00:54:18.477Z,45.10
2017-08-24T00:56:50.857Z,43.53
2017-08-24T00:59:22.039Z,36.60
2017-08-24T01:01:53.029Z,39.87
2017-08-24T01:04:24.250Z,39.33
2017-08-24T01:06:55.421Z,44.17
2017-08-24T01:09:26.562Z,45.30
2017-08-24T01:11:58.902Z,39.63
2017-08-24T01:14:30.098Z,51.23
2017-08-24T01:17:01.332Z,48.57
2017-08-24T01:19:32.474Z,65.53
2017-08-24T01:22:04.874Z,37.87
2017-08-24T01:24:35.990Z,30.27
2017-08-24T01:27:10.537Z,29.07
2017-08-24T01:29:41.860Z,24.43
2017-08-24T01:32:13.072Z,29.63
2017-08-24T01:34:45.156Z,26.60
2017-08-24T01:37:16.258Z,24.87
2017-08-24T01:39:47.566Z,37.00
2017-08-24T01:42:18.827Z,27.07
2017-08-24T01:44:50.138Z,33.27
2017-08-24T01:47:21.364Z,49.40
2017-08-24T01:49:52.442Z,26.37
2017-08-24T01:52:23.647Z,33.23
2017-08-24T01:54:54.702Z,41.50
2017-08-24T01:57:25.233Z,33.57
2017-08-24T01:59:55.761Z,41.70
2017-08-24T02:02:26.312Z,26.73
2017-08-24T02:04:56.832Z,31.63
2017-08-24T02:07:27.212Z,26.07
2017-08-24T02:09:57.651Z,28.97
2017-08-24T02:12:28.082Z,27.80
2017-08-24T02:14:58.378Z,27.70
2017-08-24T02:17:28.991Z,26.13
2017-08-24T02:19:59.665Z,21.10
2017-08-24T02:22:30.255Z,23.60
2017-08-24T02:25:00.895Z,26.33
2017-08-24T02:27:32.172Z,27.20
2017-08-24T02:30:02.696Z,23.83
2017-08-24T02:32:34.006Z,29.53
2017-08-24T02:35:04.524Z,21.80
2017-08-24T02:37:34.990Z,24.83
2017-08-24T02:40:06.410Z,25.90
2017-08-24T02:42:36.979Z,26.67
2017-08-24T02:45:07.587Z,22.03
2017-08-24T02:47:38.113Z,25.37
2017-08-24T02:50:08.690Z,24.63
2017-08-24T02:52:39.468Z,22.10
2017-08-24T02:55:10.076Z,21.43
2017-08-24T02:57:40.602Z,25.10
2017-08-24T03:00:11.268Z,22.93
2017-08-24T03:02:41.672Z,24.10
2017-08-24T03:05:15.072Z,24.30
2017-08-24T03:07:45.511Z,24.10
2017-08-24T03:10:15.978Z,22.27
2017-08-24T03:12:46.820Z,23.13
2017-08-24T03:15:17.777Z,23.33
2017-08-24T03:17:49.150Z,30.70
2017-08-24T03:20:19.786Z,23.70
2017-08-24T03:22:50.437Z,25.50
2017-08-24T03:25:20.979Z,30.97
2017-08-24T03:27:51.393Z,29.43
2017-08-24T03:30:22.151Z,28.90
2017-08-24T03:32:52.528Z,34.47
2017-08-24T03:35:22.956Z,31.40
2017-08-24T03:37:53.495Z,32.50
2017-08-24T03:40:23.991Z,33.80
2017-08-24T03:42:54.614Z,31.23
2017-08-24T03:45:25.122Z,30.63
2017-08-24T03:47:55.478Z,32.20
2017-08-24T03:50:26.140Z,36.73
2017-08-24T03:52:56.416Z,27.10
2017-08-24T03:55:26.692Z,28.10
2017-08-24T03:57:57.021Z,24.63
2017-08-24T04:00:29.802Z,25.53
2017-08-24T04:03:02.639Z,23.80
2017-08-24T04:05:33.474Z,27.40
2017-08-24T04:08:03.952Z,24.33
2017-08-24T04:10:34.344Z,25.33
2017-08-24T04:13:05.328Z,26.30
2017-08-24T04:15:36.046Z,23.40
2017-08-24T04:18:06.714Z,27.27
2017-08-24T04:20:37.196Z,21.93
2017-08-24T04:23:07.959Z,25.43
2017-08-24T04:25:38.377Z,21.97
2017-08-24T04:28:09.085Z,23.30
2017-08-24T04:30:39.696Z,28.60
2017-08-24T04:33:10.229Z,24.00
2017-08-24T04:35:40.763Z,25.43
2017-08-24T04:38:11.370Z,23.90
2017-08-24T04:40:41.978Z,22.00
2017-08-24T04:43:12.631Z,24.63
2017-08-24T04:45:43.250Z,22.47
2017-08-24T04:48:13.794Z,37.77
2017-08-24T04:50:44.282Z,24.03
2017-08-24T04:53:15.268Z,24.50
2017-08-24T04:55:46.375Z,27.50
2017-08-24T04:58:16.801Z,33.10
2017-08-24T05:00:47.430Z,26.27
2017-08-24T05:03:18.638Z,24.13
2017-08-24T05:05:49.039Z,22.43
2017-08-24T05:08:19.561Z,33.07
2017-08-24T05:10:50.012Z,33.23
2017-08-24T05:13:21.022Z,31.53
2017-08-24T05:15:51.493Z,41.67
2017-08-24T05:18:22.228Z,27.27
2017-08-24T05:20:52.768Z,23.77
2017-08-24T05:23:23.063Z,24.43
2017-08-24T05:25:53.793Z,25.60
2017-08-24T05:28:24.334Z,26.77
2017-08-24T05:30:54.752Z,24.50
2017-08-24T05:33:25.178Z,25.77
2017-08-24T05:35:55.784Z,27.80
2017-08-24T05:38:27.081Z,29.17
2017-08-24T05:40:57.458Z,32.37
2017-08-24T05:43:28.653Z,36.73
2017-08-24T05:45:59.028Z,26.60
2017-08-24T05:48:29.483Z,28.90
2017-08-24T05:50:59.991Z,29.33
2017-08-24T05:53:30.418Z,28.50
2017-08-24T05:56:01.014Z,27.57
2017-08-24T05:58:31.547Z,29.37
2017-08-24T06:01:02.167Z,30.53
2017-08-24T06:03:32.678Z,28.57
2017-08-24T06:06:03.133Z,30.17
2017-08-24T06:08:33.648Z,26.47
2017-08-24T06:11:04.104Z,33.67
2017-08-24T06:13:34.867Z,32.73
2017-08-24T06:16:05.197Z,28.23
2017-08-24T06:18:35.700Z,29.23
2017-08-24T06:21:06.207Z,33.97
2017-08-24T06:23:36.614Z,27.93
2017-08-24T06:26:07.152Z,31.93
2017-08-24T06:28:37.562Z,33.70
2017-08-24T06:31:08.052Z,32.07
2017-08-24T06:33:38.501Z,31.10
2017-08-24T06:36:08.803Z,28.37
2017-08-24T06:38:39.399Z,29.37
2017-08-24T06:41:09.832Z,34.87
2017-08-24T06:43:40.315Z,27.43
2017-08-24T06:46:10.762Z,28.00
2017-08-24T06:48:41.135Z,25.57
2017-08-24T06:51:11.725Z,29.27
2017-08-24T06:53:42.175Z,29.73
2017-08-24T06:56:12.760Z,23.10
2017-08-24T06:58:43.186Z,24.87
2017-08-24T07:01:13.576Z,23.60
2017-08-24T07:03:44.091Z,24.50
2017-08-24T07:06:14.684Z,28.03
2017-08-24T07:08:50.264Z,33.30
2017-08-24T07:11:20.790Z,24.97
2017-08-24T07:13:51.191Z,23.97
2017-08-24T07:16:21.641Z,21.63
2017-08-24T07:18:52.261Z,22.67
2017-08-24T07:21:22.687Z,22.83
2017-08-24T07:23:53.224Z,21.23
2017-08-24T07:26:23.753Z,23.63
2017-08-24T07:28:54.425Z,20.97
2017-08-24T07:31:24.983Z,18.97
2017-08-24T07:33:55.548Z,19.80
2017-08-24T07:36:26.172Z,23.07
2017-08-24T07:38:56.824Z,18.50
2017-08-24T07:41:27.396Z,21.53
2017-08-24T07:43:58.008Z,20.23
2017-08-24T07:46:28.577Z,18.60
2017-08-24T07:48:58.932Z,17.97
2017-08-24T07:51:29.385Z,17.83
2017-08-24T07:53:59.939Z,19.43
2017-08-24T07:56:30.295Z,21.80
2017-08-24T07:59:00.843Z,18.40
2017-08-24T08:01:31.363Z,20.23
2017-08-24T08:04:01.855Z,21.20
2017-08-24T08:06:32.591Z,21.97
2017-08-24T08:09:02.772Z,22.13
2017-08-24T08:11:33.528Z,19.03
2017-08-24T08:14:05.442Z,21.23
2017-08-24T08:16:35.756Z,21.97
2017-08-24T08:19:06.387Z,19.03
2017-08-24T08:21:36.788Z,22.23
2017-08-24T08:24:07.165Z,42.23
2017-08-24T08:26:37.483Z,29.00
2017-08-24T08:29:08.013Z,33.03
2017-08-24T08:31:40.417Z,22.73
2017-08-24T08:34:11.460Z,23.70
2017-08-24T08:36:43.285Z,22.87
2017-08-24T08:39:15.533Z,30.13
2017-08-24T08:41:47.786Z,23.60
2017-08-24T08:44:20.416Z,27.87
2017-08-24T08:46:52.186Z,20.27
2017-08-24T08:49:24.102Z,21.83
2017-08-24T08:51:57.574Z,21.60
2017-08-24T08:54:30.799Z,30.50
2017-08-24T08:57:03.480Z,22.50
2017-08-24T08:59:34.991Z,24.63
2017-08-24T09:02:06.335Z,25.53
2017-08-24T09:04:37.465Z,27.43
2017-08-24T09:07:07.960Z,24.60
2017-08-24T09:09:38.358Z,28.60
2017-08-24T09:12:08.973Z,24.30
2017-08-24T09:14:39.761Z,32.87
2017-08-24T09:17:10.201Z,31.00
2017-08-24T09:19:40.802Z,27.17
2017-08-24T09:22:12.024Z,21.43
2017-08-24T09:24:42.479Z,23.60
2017-08-24T09:27:13.626Z,29.43
2017-08-24T09:29:43.945Z,27.13
2017-08-24T09:32:15.322Z,25.20
2017-08-24T09:34:45.948Z,27.73
2017-08-24T09:37:16.482Z,24.57
2017-08-24T09:39:46.926Z,38.10
2017-08-24T09:42:17.407Z,24.80
2017-08-24T09:44:47.982Z,27.87
2017-08-24T09:47:18.327Z,24.07
2017-08-24T09:49:48.787Z,25.33
2017-08-24T09:52:19.390Z,23.73
2017-08-24T09:54:50.720Z,28.10
2017-08-24T09:57:21.093Z,24.27
2017-08-24T09:59:51.750Z,23.43
2017-08-24T10:02:23.467Z,22.83
2017-08-24T10:04:53.926Z,22.73
2017-08-24T10:07:24.981Z,27.10
2017-08-24T10:09:56.581Z,24.47
2017-08-24T10:12:27.196Z,28.00
2017-08-24T10:14:57.922Z,32.53
2017-08-24T10:17:28.472Z,25.43
2017-08-24T10:19:59.041Z,25.63
2017-08-24T10:22:29.482Z,24.87
2017-08-24T10:25:00.651Z,21.20
2017-08-24T10:27:31.817Z,21.07
2017-08-24T10:30:02.386Z,25.20
2017-08-24T10:32:32.767Z,19.60
2017-08-24T10:35:03.316Z,24.90
2017-08-24T10:37:33.772Z,23.97
2017-08-24T10:40:04.337Z,21.90
2017-08-24T10:42:34.815Z,19.07
2017-08-24T10:45:05.379Z,19.63
2017-08-24T10:47:35.699Z,25.80
2017-08-24T10:50:06.090Z,24.30
2017-08-24T10:52:36.483Z,25.77
2017-08-24T10:55:07.106Z,35.23
2017-08-24T10:57:37.375Z,31.10
2017-08-24T11:00:07.770Z,21.80
2017-08-24T11:02:38.876Z,24.00
2017-08-24T11:05:09.431Z,21.93
2017-08-24T11:07:40.945Z,21.67
2017-08-24T11:10:11.437Z,21.10
2017-08-24T11:12:41.772Z,19.37
2017-08-24T11:15:12.721Z,23.53
2017-08-24T11:17:43.107Z,25.40
2017-08-24T11:20:13.371Z,20.13
2017-08-24T11:22:43.894Z,18.33
2017-08-24T11:25:14.474Z,20.13
2017-08-24T11:27:45.074Z,22.83
2017-08-24T11:30:16.000Z,21.70
2017-08-24T11:32:46.550Z,19.10
2017-08-24T11:35:17.215Z,20.97
2017-08-24T11:37:47.624Z,20.53
2017-08-24T11:40:18.155Z,19.40
2017-08-24T11:42:48.593Z,20.33
2017-08-24T11:45:19.192Z,22.97
2017-08-24T11:47:49.537Z,22.40
2017-08-24T11:50:19.964Z,25.67
2017-08-24T11:52:50.368Z,21.93
2017-08-24T11:55:20.796Z,23.10
2017-08-24T11:57:51.126Z,20.70
2017-08-24T12:00:21.644Z,23.57
2017-08-24T12:02:52.179Z,21.93
2017-08-24T12:05:22.682Z,20.17
2017-08-24T12:07:53.112Z,21.00
2017-08-24T12:10:23.698Z,21.37
2017-08-24T12:12:54.195Z,22.57
2017-08-24T12:15:24.940Z,23.87
2017-08-24T12:17:55.445Z,20.30
2017-08-24T12:20:26.684Z,18.60
2017-08-24T12:22:57.117Z,22.60
2017-08-24T12:25:27.615Z,19.70
2017-08-24T12:28:00.085Z,18.97
2017-08-24T12:30:30.615Z,19.67
2017-08-24T12:33:00.860Z,20.43
2017-08-24T12:35:31.340Z,22.63
2017-08-24T12:38:01.764Z,18.33
2017-08-24T12:40:32.421Z,20.37
2017-08-24T12:43:03.147Z,17.07
2017-08-24T12:45:33.799Z,15.90
2017-08-24T12:48:04.266Z,16.53
2017-08-24T12:50:34.855Z,19.93
2017-08-24T12:53:05.271Z,24.00
2017-08-24T12:55:35.804Z,17.47
2017-08-24T12:58:06.290Z,17.50
2017-08-24T13:00:37.317Z,18.10
2017-08-24T13:03:07.763Z,16.40
2017-08-24T13:05:38.336Z,17.73
2017-08-24T13:08:08.835Z,17.97
2017-08-24T13:10:39.444Z,17.47
2017-08-24T13:13:09.891Z,18.80
2017-08-24T13:15:40.817Z,22.67
2017-08-24T13:18:11.354Z,17.40
2017-08-24T13:20:42.130Z,16.90
2017-08-24T13:23:12.610Z,14.87
2017-08-24T13:25:43.152Z,16.63
2017-08-24T13:28:13.663Z,17.40
2017-08-24T13:30:44.287Z,15.83
2017-08-24T13:33:14.808Z,15.97
2017-08-24T13:35:45.376Z,16.37
2017-08-24T13:38:16.113Z,22.37
2017-08-24T13:40:46.731Z,23.37
2017-08-24T13:43:17.239Z,24.23
2017-08-24T13:45:47.803Z,34.90
2017-08-24T13:48:18.430Z,31.47
2017-08-24T13:50:48.822Z,22.93
2017-08-24T13:53:19.563Z,19.30
2017-08-24T13:55:50.224Z,23.03
2017-08-24T13:58:21.014Z,17.73
2017-08-24T14:00:51.654Z,22.30
2017-08-24T14:03:22.282Z,25.40
2017-08-24T14:05:53.018Z,19.50
2017-08-24T14:08:23.598Z,17.80
2017-08-24T14:10:54.178Z,22.67
2017-08-24T14:13:24.707Z,18.57
2017-08-24T14:15:55.574Z,18.63
2017-08-24T14:18:26.478Z,17.30
2017-08-24T14:20:57.206Z,22.57
2017-08-24T14:23:28.084Z,20.93
2017-08-24T14:25:59.067Z,19.13
2017-08-24T14:28:29.671Z,21.80
2017-08-24T14:31:00.492Z,22.50
2017-08-24T14:33:31.579Z,20.43
2017-08-24T14:36:02.225Z,20.27
2017-08-24T14:38:32.767Z,21.43
2017-08-24T14:41:04.198Z,20.07
2017-08-24T14:43:35.615Z,23.37
2017-08-24T14:46:06.419Z,30.50
2017-08-24T14:48:37.122Z,28.17
2017-08-24T14:51:07.903Z,25.60
2017-08-24T14:53:38.512Z,27.13
2017-08-24T14:56:09.066Z,26.17
2017-08-24T14:58:39.721Z,25.27
2017-08-24T15:01:10.321Z,20.90
2017-08-24T15:03:40.866Z,18.80
2017-08-24T15:06:11.512Z,20.60
2017-08-24T15:08:41.950Z,25.80
2017-08-24T15:11:12.533Z,16.73
2017-08-24T15:13:43.830Z,20.63
2017-08-24T15:16:14.858Z,18.57
2017-08-24T15:18:45.416Z,16.90
2017-08-24T15:21:15.989Z,15.80
2017-08-24T15:23:47.034Z,19.80
2017-08-24T15:26:17.570Z,16.67
2017-08-24T15:28:48.998Z,19.27
2017-08-24T15:31:19.819Z,16.47
2017-08-24T15:33:50.212Z,18.87
2017-08-24T15:36:20.691Z,16.40
2017-08-24T15:38:51.021Z,20.10
2017-08-24T15:41:21.488Z,16.50
2017-08-24T15:43:51.848Z,17.90
2017-08-24T15:46:22.386Z,16.13
2017-08-24T15:48:52.993Z,19.87
2017-08-24T15:51:24.128Z,15.60
2017-08-24T15:53:54.693Z,18.00
2017-08-24T15:56:25.240Z,16.30
2017-08-24T15:58:55.396Z,16.20
2017-08-24T16:01:26.142Z,20.67
2017-08-24T16:03:56.879Z,23.43
2017-08-24T16:06:27.723Z,18.73
2017-08-24T16:08:58.354Z,17.60
2017-08-24T16:11:28.990Z,21.87
2017-08-24T16:13:59.388Z,19.33
2017-08-24T16:16:30.439Z,22.90
2017-08-24T16:19:00.830Z,23.30
2017-08-24T16:21:31.391Z,22.83
2017-08-24T16:24:01.904Z,19.73
2017-08-24T16:26:32.355Z,18.70
2017-08-24T16:29:02.813Z,20.20
2017-08-24T16:31:33.324Z,16.53
2017-08-24T16:34:03.775Z,18.13
2017-08-24T16:36:34.798Z,18.47
2017-08-24T16:39:05.526Z,16.63
2017-08-24T16:41:36.784Z,16.97
2017-08-24T16:44:08.209Z,17.80
2017-08-24T16:46:39.414Z,15.87
2017-08-24T16:49:09.810Z,16.83
2017-08-24T16:51:41.902Z,23.80
2017-08-24T16:54:15.724Z,18.23
2017-08-24T16:56:46.184Z,23.63
2017-08-24T16:59:17.358Z,17.80
2017-08-24T17:01:49.041Z,17.33
2017-08-24T17:04:19.660Z,23.10
2017-08-24T17:06:50.291Z,17.40
2017-08-24T17:09:20.922Z,16.93
2017-08-24T17:11:56.840Z,21.00
2017-08-24T17:14:27.251Z,20.20
2017-08-24T17:16:58.228Z,19.90
2017-08-24T17:19:28.640Z,17.13
2017-08-24T17:21:59.163Z,25.63
2017-08-24T17:24:29.662Z,18.23
2017-08-24T17:27:00.264Z,17.43
2017-08-24T17:29:30.777Z,20.20
2017-08-24T17:32:01.215Z,17.63
2017-08-24T17:34:31.624Z,19.30
2017-08-24T17:37:02.996Z,16.97
2017-08-24T17:39:33.443Z,17.73
2017-08-24T17:42:03.853Z,23.20
2017-08-24T17:44:34.353Z,21.70
2017-08-24T17:47:04.792Z,16.30
2017-08-24T17:49:35.292Z,17.20
2017-08-24T17:52:05.829Z,18.10
2017-08-24T17:54:36.153Z,22.77
2017-08-24T17:57:06.646Z,17.60
2017-08-24T17:59:37.149Z,22.83
2017-08-24T18:02:08.522Z,20.40
2017-08-24T18:04:39.092Z,18.17
2017-08-24T18:07:09.369Z,19.37
2017-08-24T18:09:39.868Z,21.83
2017-08-24T18:12:10.346Z,20.70
2017-08-24T18:14:40.855Z,23.00
2017-08-24T18:17:11.606Z,21.93
2017-08-24T18:19:42.086Z,18.97
2017-08-24T18:22:12.505Z,19.97
2017-08-24T18:24:43.018Z,19.43
2017-08-24T18:27:13.516Z,23.83
2017-08-24T18:29:44.162Z,18.00
2017-08-24T18:32:14.586Z,18.47
2017-08-24T18:34:45.130Z,18.80
2017-08-24T18:37:15.351Z,18.50
2017-08-24T18:39:45.720Z,19.37
2017-08-24T18:42:16.262Z,20.13
2017-08-24T18:44:46.876Z,21.33
2017-08-24T18:47:17.462Z,18.87
2017-08-24T18:49:48.013Z,19.03
2017-08-24T18:52:18.470Z,19.10
2017-08-24T18:54:48.929Z,19.03
2017-08-24T18:57:19.291Z,19.57
2017-08-24T18:59:49.778Z,21.60
2017-08-24T19:02:20.458Z,19.13
2017-08-24T19:04:51.057Z,20.70
2017-08-24T19:07:21.711Z,19.23
2017-08-24T19:09:52.192Z,19.30
2017-08-24T19:12:22.623Z,20.57
2017-08-24T19:14:53.226Z,21.07
2017-08-24T19:17:24.184Z,22.60
2017-08-24T19:19:54.688Z,21.63
2017-08-24T19:22:25.253Z,19.93
2017-08-24T19:24:55.640Z,19.77
2017-08-24T19:27:25.944Z,18.93
2017-08-24T19:29:56.362Z,19.43
2017-08-24T19:32:26.673Z,23.83
2017-08-24T19:34:57.206Z,23.43
2017-08-24T19:37:28.441Z,18.83
2017-08-24T19:39:58.910Z,20.63
2017-08-24T19:42:29.843Z,29.83
2017-08-24T19:45:00.366Z,20.13
2017-08-24T19:47:31.647Z,24.57
2017-08-24T19:50:02.101Z,19.73
2017-08-24T19:52:32.494Z,22.40
2017-08-24T19:55:03.013Z,20.70
2017-08-24T19:57:33.530Z,22.00
2017-08-24T20:00:04.047Z,22.27
2017-08-24T20:02:34.692Z,23.47
2017-08-24T20:05:06.568Z,23.80
2017-08-24T20:07:37.219Z,22.40
2017-08-24T20:10:07.751Z,29.33
2017-08-24T20:12:38.279Z,22.17
2017-08-24T20:15:08.790Z,30.80
2017-08-24T20:17:39.817Z,20.40
2017-08-24T20:20:10.103Z,24.40
2017-08-24T20:22:40.595Z,29.53
2017-08-24T20:25:11.094Z,26.40
2017-08-24T20:27:41.538Z,38.63
2017-08-24T20:30:12.079Z,29.93
2017-08-24T20:32:42.631Z,29.57
2017-08-24T20:35:13.179Z,31.93
2017-08-24T20:37:43.762Z,28.97
2017-08-24T20:40:14.392Z,25.37
2017-08-24T20:42:45.697Z,24.17
2017-08-24T20:45:16.191Z,25.57
2017-08-24T20:47:46.686Z,23.73
2017-08-24T20:50:17.182Z,23.70
2017-08-24T20:52:47.594Z,26.10
2017-08-24T20:55:17.957Z,30.40
2017-08-24T20:57:48.513Z,31.53
2017-08-24T21:00:19.560Z,30.67
2017-08-24T21:02:50.133Z,25.40
2017-08-24T21:05:20.613Z,29.90
2017-08-24T21:07:51.230Z,40.40
2017-08-24T21:10:21.798Z,31.13
2017-08-24T21:12:53.164Z,26.10
2017-08-24T21:15:23.683Z,37.13
2017-08-24T21:17:54.699Z,27.63
2017-08-24T21:20:25.144Z,35.07
2017-08-24T21:22:55.441Z,28.30
2017-08-24T21:25:26.003Z,27.27
2017-08-24T21:27:56.374Z,37.07
2017-08-24T21:30:26.975Z,38.73
2017-08-24T21:32:57.200Z,36.57
2017-08-24T21:35:27.840Z,44.77
2017-08-24T21:37:58.312Z,39.57
2017-08-24T21:40:28.695Z,45.27
2017-08-24T21:42:59.004Z,34.60
2017-08-24T21:45:29.567Z,36.00
2017-08-24T21:47:59.920Z,42.83
2017-08-24T21:50:30.312Z,31.60
2017-08-24T21:53:00.702Z,36.53
2017-08-24T21:55:31.227Z,35.20
2017-08-24T21:58:01.532Z,32.23
2017-08-24T22:00:32.139Z,36.57
2017-08-24T22:03:02.763Z,33.70
2017-08-24T22:05:33.227Z,32.00
2017-08-24T22:08:03.716Z,32.67
2017-08-24T22:10:34.176Z,30.37
2017-08-24T22:13:04.587Z,35.33
2017-08-24T22:15:35.074Z,32.17
2017-08-24T22:18:06.583Z,45.00
2017-08-24T22:20:36.966Z,38.90
2017-08-24T22:23:07.408Z,44.73
2017-08-24T22:25:37.895Z,51.30
2017-08-24T22:28:08.427Z,60.93
2017-08-24T22:30:38.850Z,43.33
2017-08-24T22:33:09.299Z,40.50
2017-08-24T22:35:39.839Z,49.37
2017-08-24T22:38:11.219Z,56.53
2017-08-24T22:40:41.740Z,47.80
2017-08-24T22:43:12.164Z,56.37
2017-08-24T22:45:42.587Z,58.50
2017-08-24T22:48:13.954Z,59.47
2017-08-24T22:50:44.307Z,59.10
2017-08-24T22:53:19.818Z,49.80
2017-08-24T22:55:55.363Z,53.67
2017-08-24T22:58:31.161Z,53.20
2017-08-24T23:01:06.566Z,57.17
2017-08-24T23:03:42.197Z,60.67
2017-08-24T23:06:12.622Z,45.70
2017-08-24T23:08:42.972Z,42.80
2017-08-24T23:11:13.400Z,53.53
2017-08-24T23:13:43.670Z,46.23
2017-08-24T23:16:14.224Z,44.97
2017-08-24T23:18:44.664Z,46.30
2017-08-24T23:21:15.335Z,55.43
2017-08-24T23:23:45.869Z,58.50
2017-08-24T23:26:16.418Z,48.37
2017-08-24T23:28:47.005Z,50.60
2017-08-24T23:31:17.558Z,40.67
2017-08-24T23:33:48.191Z,42.10
2017-08-24T23:36:18.817Z,37.47
2017-08-24T23:38:49.259Z,40.73
2017-08-24T23:41:19.536Z,43.47
2017-08-24T23:43:49.927Z,36.10
2017-08-24T23:46:21.231Z,38.57
2017-08-24T23:48:51.681Z,36.80
2017-08-24T23:51:21.941Z,39.87
2017-08-24T23:53:52.486Z,40.93
2017-08-24T23:56:23.104Z,31.40
2017-08-24T23:58:53.666Z,39.80
